Terminal Aerodrome Forecast
Issued by NWS Des Moines, IA

Home | Current Version | Previous Version | Text Only | Print | Product List | Glossary On
Versions: 1 2 3 4 5 6 7 8 9 10 11 12 13 14
000
FTUS43 KDMX 211122
TAFALO
TAF
KALO 211122Z 2112/2212 32015G24KT P6SM BKN110
     FM211300 32020G30KT P6SM SCT130
     FM211500 33024G35KT P6SM SCT080
     FM212000 33019G29KT P6SM SKC
     FM212300 33015G23KT P6SM SKC
     FM220200 33011KT P6SM SKC
     FM220800 32007KT P6SM FEW240=

USA.gov is the U.S. government's official web portal to all federal, state and local government web resources and services.